sensor_id;sensor_type;location;lat;lon;timestamp;pressure;altitude;pressure_sealevel;temperature;humidity
57234;BME280;43090;52.604;13.318;2023-05-19T00:01:47;102225.72;;;10.69;64.41
57234;BME280;43090;52.604;13.318;2023-05-19T00:04:14;102227.97;;;10.40;64.50
57234;BME280;43090;52.604;13.318;2023-05-19T00:06:42;102220.72;;;10.42;63.93
57234;BME280;43090;52.604;13.318;2023-05-19T00:09:12;102218.78;;;10.46;63.90
57234;BME280;43090;52.604;13.318;2023-05-19T00:11:39;102216.91;;;10.48;64.74
57234;BME280;43090;52.604;13.318;2023-05-19T00:14:07;102215.84;;;10.31;62.77
57234;BME280;43090;52.604;13.318;2023-05-19T00:16:35;102216.34;;;10.41;62.42
57234;BME280;43090;52.604;13.318;2023-05-19T00:19:04;102212.09;;;10.36;63.32
57234;BME280;43090;52.604;13.318;2023-05-19T00:21:31;102213.06;;;10.54;63.34
57234;BME280;43090;52.604;13.318;2023-05-19T00:23:58;102201.41;;;10.36;63.20
57234;BME280;43090;52.604;13.318;2023-05-19T00:26:26;102213.00;;;10.15;60.95
57234;BME280;43090;52.604;13.318;2023-05-19T00:28:52;102216.19;;;10.24;63.07
57234;BME280;43090;52.604;13.318;2023-05-19T00:31:19;102206.75;;;10.36;63.55
57234;BME280;43090;52.604;13.318;2023-05-19T00:33:46;102214.16;;;10.10;63.27
57234;BME280;43090;52.604;13.318;2023-05-19T00:36:12;102203.31;;;10.13;63.14
57234;BME280;43090;52.604;13.318;2023-05-19T00:38:38;102218.66;;;10.28;62.92
57234;BME280;43090;52.604;13.318;2023-05-19T00:41:05;102214.53;;;10.21;62.31
57234;BME280;43090;52.604;13.318;2023-05-19T00:43:32;102216.41;;;10.19;62.22
57234;BME280;43090;52.604;13.318;2023-05-19T00:46:02;102205.78;;;10.17;62.13
57234;BME280;43090;52.604;13.318;2023-05-19T00:48:29;102221.50;;;10.25;62.01
57234;BME280;43090;52.604;13.318;2023-05-19T00:50:56;102222.28;;;10.27;61.46
57234;BME280;43090;52.604;13.318;2023-05-19T00:53:27;102210.97;;;10.21;61.58
57234;BME280;43090;52.604;13.318;2023-05-19T00:55:54;102216.78;;;10.30;61.39
57234;BME280;43090;52.604;13.318;2023-05-19T00:58:21;102208.22;;;10.03;61.93
57234;BME280;43090;52.604;13.318;2023-05-19T01:00:49;102221.38;;;10.08;62.01
57234;BME280;43090;52.604;13.318;2023-05-19T01:03:16;102208.16;;;10.05;62.44
57234;BME280;43090;52.604;13.318;2023-05-19T01:05:46;102224.97;;;10.07;62.81
57234;BME280;43090;52.604;13.318;2023-05-19T01:08:18;102216.69;;;10.13;62.26
57234;BME280;43090;52.604;13.318;2023-05-19T01:10:45;102201.88;;;10.06;61.63
57234;BME280;43090;52.604;13.318;2023-05-19T01:13:12;102201.28;;;9.99;61.81
57234;BME280;43090;52.604;13.318;2023-05-19T01:15:56;102203.88;;;10.00;62.66
57234;BME280;43090;52.604;13.318;2023-05-19T01:18:31;102210.38;;;9.95;62.22
57234;BME280;43090;52.604;13.318;2023-05-19T01:32:34;102214.09;;;9.91;62.17
57234;BME280;43090;52.604;13.318;2023-05-19T01:35:03;102219.34;;;9.94;62.09
57234;BME280;43090;52.604;13.318;2023-05-19T01:51:31;102215.00;;;8.63;67.82
57234;BME280;43090;52.604;13.318;2023-05-19T01:53:58;102212.69;;;8.98;66.95
57234;BME280;43090;52.604;13.318;2023-05-19T02:02:18;102222.84;;;9.32;64.86
57234;BME280;43090;52.604;13.318;2023-05-19T02:04:59;102219.00;;;9.40;64.33
57234;BME280;43090;52.604;13.318;2023-05-19T02:07:43;102219.47;;;9.49;64.11
57234;BME280;43090;52.604;13.318;2023-05-19T02:10:26;102220.53;;;9.45;63.96
57234;BME280;43090;52.604;13.318;2023-05-19T02:12:59;102232.75;;;9.51;63.88
57234;BME280;43090;52.604;13.318;2023-05-19T02:15:29;102225.69;;;9.50;64.41
57234;BME280;43090;52.604;13.318;2023-05-19T02:17:59;102222.53;;;9.40;64.41
57234;BME280;43090;52.604;13.318;2023-05-19T02:20:30;102226.34;;;9.34;64.48
57234;BME280;43090;52.604;13.318;2023-05-19T02:22:57;102207.78;;;9.31;64.53
57234;BME280;43090;52.604;13.318;2023-05-19T02:25:23;102218.88;;;9.21;65.23
57234;BME280;43090;52.604;13.318;2023-05-19T02:27:51;102215.97;;;9.27;65.16
57234;BME280;43090;52.604;13.318;2023-05-19T02:30:18;102214.03;;;9.30;65.13
57234;BME280;43090;52.604;13.318;2023-05-19T02:32:44;102212.16;;;9.32;64.58
57234;BME280;43090;52.604;13.318;2023-05-19T02:35:12;102199.16;;;9.25;64.94
57234;BME280;43090;52.604;13.318;2023-05-19T02:37:39;102203.59;;;9.24;64.46
57234;BME280;43090;52.604;13.318;2023-05-19T02:40:07;102215.25;;;9.44;64.18
57234;BME280;43090;52.604;13.318;2023-05-19T02:42:34;102204.03;;;9.36;64.08
57234;BME280;43090;52.604;13.318;2023-05-19T02:45:01;102211.78;;;9.42;64.33
57234;BME280;43090;52.604;13.318;2023-05-19T02:47:27;102202.06;;;9.39;64.43
57234;BME280;43090;52.604;13.318;2023-05-19T02:49:54;102198.94;;;9.29;64.54
57234;BME280;43090;52.604;13.318;2023-05-19T02:52:20;102209.56;;;9.09;64.63
57234;BME280;43090;52.604;13.318;2023-05-19T02:54:47;102210.84;;;9.22;65.48
57234;BME280;43090;52.604;13.318;2023-05-19T02:57:13;102197.13;;;9.30;64.92
57234;BME280;43090;52.604;13.318;2023-05-19T02:59:40;102202.47;;;9.30;65.13
57234;BME280;43090;52.604;13.318;2023-05-19T03:02:08;102199.06;;;9.47;64.54
57234;BME280;43090;52.604;13.318;2023-05-19T03:04:34;102200.50;;;9.56;64.15
57234;BME280;43090;52.604;13.318;2023-05-19T03:07:07;102206.84;;;9.53;63.69
57234;BME280;43090;52.604;13.318;2023-05-19T03:09:36;102186.28;;;9.55;63.08
57234;BME280;43090;52.604;13.318;2023-05-19T03:12:03;102215.91;;;9.70;62.77
57234;BME280;43090;52.604;13.318;2023-05-19T03:14:30;102206.00;;;9.53;63.35
57234;BME280;43090;52.604;13.318;2023-05-19T03:16:58;102198.16;;;9.48;63.27
57234;BME280;43090;52.604;13.318;2023-05-19T03:19:25;102198.06;;;9.49;63.21
57234;BME280;43090;52.604;13.318;2023-05-19T03:21:52;102201.16;;;9.61;63.54
57234;BME280;43090;52.604;13.318;2023-05-19T03:24:18;102200.38;;;9.38;64.17
57234;BME280;43090;52.604;13.318;2023-05-19T03:26:45;102199.06;;;9.47;64.21
57234;BME280;43090;52.604;13.318;2023-05-19T03:29:11;102194.94;;;9.40;64.33
57234;BME280;43090;52.604;13.318;2023-05-19T03:31:38;102197.38;;;9.46;63.60
57234;BME280;43090;52.604;13.318;2023-05-19T03:34:04;102190.28;;;9.45;63.83
57234;BME280;43090;52.604;13.318;2023-05-19T03:36:31;102212.19;;;9.53;63.73
57234;BME280;43090;52.604;13.318;2023-05-19T03:38:57;102198.28;;;9.45;63.99
57234;BME280;43090;52.604;13.318;2023-05-19T03:41:24;102205.75;;;9.37;64.21
57234;BME280;43090;52.604;13.318;2023-05-19T03:43:51;102204.44;;;9.47;64.33
57234;BME280;43090;52.604;13.318;2023-05-19T03:46:17;102192.78;;;9.27;65.21
57234;BME280;43090;52.604;13.318;2023-05-19T03:48:44;102193.53;;;9.31;65.29
57234;BME280;43090;52.604;13.318;2023-05-19T03:51:10;102198.47;;;9.40;64.83
57234;BME280;43090;52.604;13.318;2023-05-19T03:53:37;102198.41;;;9.42;65.20
57234;BME280;43090;52.604;13.318;2023-05-19T03:56:04;102205.28;;;9.27;65.99
57234;BME280;43090;52.604;13.318;2023-05-19T03:58:32;102198.94;;;9.29;65.58
57234;BME280;43090;52.604;13.318;2023-05-19T04:00:59;102205.97;;;9.32;65.98
57234;BME280;43090;52.604;13.318;2023-05-19T04:03:26;102185.53;;;9.09;65.96
57234;BME280;43090;52.604;13.318;2023-05-19T04:05:53;102200.94;;;9.24;66.09
57234;BME280;43090;52.604;13.318;2023-05-19T04:08:20;102193.00;;;9.43;65.68
57234;BME280;43090;52.604;13.318;2023-05-19T04:10:46;102203.50;;;9.48;65.92
57234;BME280;43090;52.604;13.318;2023-05-19T04:13:13;102204.72;;;9.41;66.03
57234;BME280;43090;52.604;13.318;2023-05-19T04:15:39;102208.69;;;9.51;65.85
57234;BME280;43090;52.604;13.318;2023-05-19T04:18:06;102189.88;;;9.54;65.88
57234;BME280;43090;52.604;13.318;2023-05-19T04:20:33;102205.09;;;9.73;66.46
57234;BME280;43090;52.604;13.318;2023-05-19T04:23:00;102205.78;;;9.78;66.00
57234;BME280;43090;52.604;13.318;2023-05-19T04:25:26;102209.38;;;9.77;65.74
57234;BME280;43090;52.604;13.318;2023-05-19T04:27:53;102206.00;;;9.53;64.89
57234;BME280;43090;52.604;13.318;2023-05-19T04:30:23;102213.28;;;9.27;65.47
57234;BME280;43090;52.604;13.318;2023-05-19T04:32:49;102209.88;;;9.66;64.68
57234;BME280;43090;52.604;13.318;2023-05-19T04:35:16;102214.00;;;9.53;66.20
57234;BME280;43090;52.604;13.318;2023-05-19T04:37:43;102218.66;;;9.68;66.06
57234;BME280;43090;52.604;13.318;2023-05-19T04:40:13;102212.38;;;9.69;66.00
57234;BME280;43090;52.604;13.318;2023-05-19T04:42:41;102206.38;;;9.64;64.89
57234;BME280;43090;52.604;13.318;2023-05-19T04:45:08;102224.22;;;9.84;66.02
57234;BME280;43090;52.604;13.318;2023-05-19T04:47:35;102222.84;;;9.75;65.90
57234;BME280;43090;52.604;13.318;2023-05-19T04:50:04;102212.31;;;9.91;65.81
57234;BME280;43090;52.604;13.318;2023-05-19T04:52:32;102218.06;;;9.82;65.19
57234;BME280;43090;52.604;13.318;2023-05-19T04:54:59;102207.34;;;10.03;65.49
57234;BME280;43090;52.604;13.318;2023-05-19T04:57:25;102205.53;;;10.03;65.92
57234;BME280;43090;52.604;13.318;2023-05-19T04:59:52;102216.19;;;9.84;65.33
57234;BME280;43090;52.604;13.318;2023-05-19T05:02:25;102212.84;;;9.99;66.00
57234;BME280;43090;52.604;13.318;2023-05-19T05:04:54;102210.13;;;9.80;65.66
57234;BME280;43090;52.604;13.318;2023-05-19T05:07:22;102207.22;;;10.06;64.58
57234;BME280;43090;52.604;13.318;2023-05-19T05:09:49;102216.66;;;10.33;64.52
57234;BME280;43090;52.604;13.318;2023-05-19T05:12:17;102213.84;;;10.16;65.38
57234;BME280;43090;52.604;13.318;2023-05-19T05:14:44;102208.41;;;10.38;65.09
57234;BME280;43090;52.604;13.318;2023-05-19T05:17:11;102209.22;;;10.59;64.93
57234;BME280;43090;52.604;13.318;2023-05-19T05:19:38;102204.06;;;10.36;65.81
57234;BME280;43090;52.604;13.318;2023-05-19T05:22:05;102208.06;;;10.46;66.47
57234;BME280;43090;52.604;13.318;2023-05-19T05:24:32;102210.47;;;10.52;66.92
57234;BME280;43090;52.604;13.318;2023-05-19T05:26:58;102206.19;;;10.48;66.99
57234;BME280;43090;52.604;13.318;2023-05-19T05:29:25;102208.13;;;10.63;66.83
57234;BME280;43090;52.604;13.318;2023-05-19T05:31:51;102211.44;;;10.69;67.17
57234;BME280;43090;52.604;13.318;2023-05-19T05:34:18;102216.44;;;10.76;67.46
57234;BME280;43090;52.604;13.318;2023-05-19T05:36:44;102217.16;;;10.80;68.35
57234;BME280;43090;52.604;13.318;2023-05-19T05:39:11;102213.88;;;10.92;68.04
57234;BME280;43090;52.604;13.318;2023-05-19T05:41:38;102214.16;;;10.86;68.38
57234;BME280;43090;52.604;13.318;2023-05-19T05:44:04;102215.97;;;11.05;68.25
57234;BME280;43090;52.604;13.318;2023-05-19T05:46:31;102218.03;;;11.17;67.51
57234;BME280;43090;52.604;13.318;2023-05-19T05:48:58;102212.69;;;11.17;68.17
57234;BME280;43090;52.604;13.318;2023-05-19T05:51:24;102216.31;;;11.33;67.22
57234;BME280;43090;52.604;13.318;2023-05-19T05:53:53;102219.53;;;11.23;68.08
57234;BME280;43090;52.604;13.318;2023-05-19T05:56:20;102206.03;;;11.24;68.52
57234;BME280;43090;52.604;13.318;2023-05-19T05:58:46;102203.75;;;11.16;68.92
57234;BME280;43090;52.604;13.318;2023-05-19T06:01:13;102209.28;;;11.31;67.40
57234;BME280;43090;52.604;13.318;2023-05-19T06:03:42;102210.09;;;11.50;67.03
57234;BME280;43090;52.604;13.318;2023-05-19T06:06:10;102193.91;;;11.34;66.20
57234;BME280;43090;52.604;13.318;2023-05-19T06:08:37;102204.09;;;11.63;65.42
57234;BME280;43090;52.604;13.318;2023-05-19T06:11:03;102192.59;;;11.43;64.93
57234;BME280;43090;52.604;13.318;2023-05-19T06:13:35;102209.59;;;11.60;66.17
57234;BME280;43090;52.604;13.318;2023-05-19T06:16:02;102206.03;;;11.77;64.58
57234;BME280;43090;52.604;13.318;2023-05-19T06:18:28;102212.22;;;11.79;65.51
57234;BME280;43090;52.604;13.318;2023-05-19T06:20:55;102206.91;;;11.77;66.93
57234;BME280;43090;52.604;13.318;2023-05-19T06:23:21;102201.84;;;11.89;67.06
57234;BME280;43090;52.604;13.318;2023-05-19T06:25:49;102213.19;;;11.94;68.36
57234;BME280;43090;52.604;13.318;2023-05-19T06:28:15;102216.41;;;12.18;67.41
57234;BME280;43090;52.604;13.318;2023-05-19T06:30:42;102210.34;;;12.14;66.15
57234;BME280;43090;52.604;13.318;2023-05-19T06:33:11;102216.09;;;12.24;63.41
57234;BME280;43090;52.604;13.318;2023-05-19T06:35:37;102213.31;;;12.42;64.51
57234;BME280;43090;52.604;13.318;2023-05-19T06:38:04;102199.13;;;12.40;62.58
57234;BME280;43090;52.604;13.318;2023-05-19T06:40:30;102207.63;;;12.48;60.67
57234;BME280;43090;52.604;13.318;2023-05-19T06:42:57;102205.28;;;12.42;60.89
57234;BME280;43090;52.604;13.318;2023-05-19T06:45:23;102217.56;;;12.46;62.43
57234;BME280;43090;52.604;13.318;2023-05-19T06:47:50;102200.16;;;12.21;62.85
57234;BME280;43090;52.604;13.318;2023-05-19T06:50:17;102213.00;;;12.48;63.97
57234;BME280;43090;52.604;13.318;2023-05-19T06:52:43;102218.53;;;12.45;63.43
57234;BME280;43090;52.604;13.318;2023-05-19T06:55:12;102202.78;;;12.55;63.66
57234;BME280;43090;52.604;13.318;2023-05-19T06:57:38;102200.78;;;12.42;64.72
57234;BME280;43090;52.604;13.318;2023-05-19T07:00:05;102204.41;;;12.73;62.39
57234;BME280;43090;52.604;13.318;2023-05-19T07:02:35;102205.63;;;12.83;62.58
57234;BME280;43090;52.604;13.318;2023-05-19T07:05:02;102204.28;;;13.07;61.10
57234;BME280;43090;52.604;13.318;2023-05-19T07:07:28;102212.69;;;13.16;59.85
57234;BME280;43090;52.604;13.318;2023-05-19T07:09:56;102207.75;;;13.09;59.05
57234;BME280;43090;52.604;13.318;2023-05-19T07:12:22;102211.59;;;13.35;58.61
57234;BME280;43090;52.604;13.318;2023-05-19T07:14:49;102205.88;;;13.41;60.35
57234;BME280;43090;52.604;13.318;2023-05-19T07:17:16;102208.25;;;13.15;60.97
57234;BME280;43090;52.604;13.318;2023-05-19T07:19:43;102203.66;;;13.17;64.34
57234;BME280;43090;52.604;13.318;2023-05-19T07:22:09;102219.78;;;13.33;62.07
57234;BME280;43090;52.604;13.318;2023-05-19T07:24:36;102222.19;;;13.69;62.17
57234;BME280;43090;52.604;13.318;2023-05-19T07:27:02;102221.44;;;13.95;59.74
57234;BME280;43090;52.604;13.318;2023-05-19T07:29:29;102222.91;;;14.01;59.11
57234;BME280;43090;52.604;13.318;2023-05-19T07:31:55;102215.31;;;14.22;57.31
57234;BME280;43090;52.604;13.318;2023-05-19T07:34:23;102209.16;;;14.35;59.79
57234;BME280;43090;52.604;13.318;2023-05-19T07:36:52;102214.06;;;15.39;58.21
57234;BME280;43090;52.604;13.318;2023-05-19T07:39:19;102200.91;;;15.73;57.13
57234;BME280;43090;52.604;13.318;2023-05-19T07:41:46;102195.09;;;16.68;54.16
57234;BME280;43090;52.604;13.318;2023-05-19T07:44:18;102201.75;;;18.17;49.03
57234;BME280;43090;52.604;13.318;2023-05-19T07:46:44;102211.53;;;17.84;49.46
57234;BME280;43090;52.604;13.318;2023-05-19T07:49:11;102191.13;;;16.97;50.61
57234;BME280;43090;52.604;13.318;2023-05-19T07:51:37;102190.69;;;16.54;51.46
57234;BME280;43090;52.604;13.318;2023-05-19T07:54:03;102197.59;;;16.21;52.36
57234;BME280;43090;52.604;13.318;2023-05-19T07:56:30;102190.34;;;16.08;53.79
57234;BME280;43090;52.604;13.318;2023-05-19T07:58:57;102179.84;;;16.29;52.44
57234;BME280;43090;52.604;13.318;2023-05-19T08:01:23;102194.72;;;16.48;49.66
57234;BME280;43090;52.604;13.318;2023-05-19T08:03:50;102190.69;;;16.54;49.56
57234;BME280;43090;52.604;13.318;2023-05-19T08:06:19;102197.09;;;16.53;50.79
57234;BME280;43090;52.604;13.318;2023-05-19T08:08:46;102188.41;;;16.60;51.88
57234;BME280;43090;52.604;13.318;2023-05-19T08:11:13;102192.66;;;16.52;50.17
57234;BME280;43090;52.604;13.318;2023-05-19T08:13:39;102186.88;;;15.68;54.82
57234;BME280;43090;52.604;13.318;2023-05-19T08:16:06;102177.13;;;16.29;53.30
57234;BME280;43090;52.604;13.318;2023-05-19T08:18:33;102186.31;;;16.27;54.15
57234;BME280;43090;52.604;13.318;2023-05-19T08:20:59;102180.38;;;16.35;53.50
57234;BME280;43090;52.604;13.318;2023-05-19T08:23:26;102199.22;;;16.10;53.46
57234;BME280;43090;52.604;13.318;2023-05-19T08:25:53;102184.16;;;16.32;54.19
57234;BME280;43090;52.604;13.318;2023-05-19T08:28:19;102193.44;;;16.78;49.01
57234;BME280;43090;52.604;13.318;2023-05-19T08:30:46;102190.19;;;16.48;50.10
57234;BME280;43090;52.604;13.318;2023-05-19T08:33:12;102198.22;;;16.24;53.92
57234;BME280;43090;52.604;13.318;2023-05-19T08:35:39;102194.53;;;16.38;52.82
57234;BME280;43090;52.604;13.318;2023-05-19T08:38:05;102191.28;;;16.33;50.18
57234;BME280;43090;52.604;13.318;2023-05-19T08:40:33;102196.59;;;16.35;53.29
57234;BME280;43090;52.604;13.318;2023-05-19T08:43:01;102189.13;;;16.25;50.65
57234;BME280;43090;52.604;13.318;2023-05-19T08:45:27;102191.69;;;16.53;54.22
57234;BME280;43090;52.604;13.318;2023-05-19T08:47:55;102180.06;;;16.88;49.84
57234;BME280;43090;52.604;13.318;2023-05-19T08:50:23;102173.09;;;17.21;52.26
57234;BME280;43090;52.604;13.318;2023-05-19T08:52:55;102171.31;;;17.32;49.52
57234;BME280;43090;52.604;13.318;2023-05-19T08:55:42;102176.38;;;17.37;50.61
57234;BME280;43090;52.604;13.318;2023-05-19T08:58:12;102172.28;;;17.31;50.88
57234;BME280;43090;52.604;13.318;2023-05-19T09:00:41;102172.13;;;17.57;49.74
57234;BME280;43090;52.604;13.318;2023-05-19T09:03:09;102173.16;;;17.43;48.69
57234;BME280;43090;52.604;13.318;2023-05-19T09:05:49;102159.34;;;17.82;45.04
57234;BME280;43090;52.604;13.318;2023-05-19T09:08:16;102169.88;;;17.04;47.29
57234;BME280;43090;52.604;13.318;2023-05-19T09:10:43;102162.94;;;17.36;44.94
57234;BME280;43090;52.604;13.318;2023-05-19T09:13:10;102160.91;;;17.51;43.39
57234;BME280;43090;52.604;13.318;2023-05-19T09:15:37;102163.72;;;16.65;47.81
57234;BME280;43090;52.604;13.318;2023-05-19T09:18:12;102158.19;;;16.66;47.87
57234;BME280;43090;52.604;13.318;2023-05-19T09:20:41;102160.84;;;16.79;47.47
57234;BME280;43090;52.604;13.318;2023-05-19T09:23:12;102159.13;;;16.78;46.35
57234;BME280;43090;52.604;13.318;2023-05-19T09:25:49;102162.50;;;16.45;47.34
57234;BME280;43090;52.604;13.318;2023-05-19T09:28:26;102154.63;;;16.42;47.41
57234;BME280;43090;52.604;13.318;2023-05-19T09:31:13;102155.72;;;16.39;48.17
57234;BME280;43090;52.604;13.318;2023-05-19T09:33:41;102162.00;;;16.64;46.40
57234;BME280;43090;52.604;13.318;2023-05-19T09:36:11;102151.94;;;16.42;49.98
57234;BME280;43090;52.604;13.318;2023-05-19T09:38:38;102157.41;;;16.40;48.92
57234;BME280;43090;52.604;13.318;2023-05-19T09:41:05;102141.13;;;16.90;48.89
57234;BME280;43090;52.604;13.318;2023-05-19T09:43:33;102142.25;;;17.23;44.17
57234;BME280;43090;52.604;13.318;2023-05-19T09:46:07;102144.41;;;17.54;43.59
57234;BME280;43090;52.604;13.318;2023-05-19T09:48:38;102144.44;;;17.18;43.13
57234;BME280;43090;52.604;13.318;2023-05-19T09:51:05;102137.84;;;17.45;44.03
57234;BME280;43090;52.604;13.318;2023-05-19T09:53:33;102140.31;;;17.37;42.94
57234;BME280;43090;52.604;13.318;2023-05-19T09:56:01;102143.97;;;16.76;45.58
57234;BME280;43090;52.604;13.318;2023-05-19T09:58:33;102137.88;;;16.85;47.72
57234;BME280;43090;52.604;13.318;2023-05-19T10:01:06;102130.97;;;17.05;42.94
57234;BME280;43090;52.604;13.318;2023-05-19T10:03:34;102121.25;;;16.78;45.56
57234;BME280;43090;52.604;13.318;2023-05-19T10:06:03;102132.63;;;17.19;44.25
57234;BME280;43090;52.604;13.318;2023-05-19T10:08:32;102120.38;;;17.38;42.81
57234;BME280;43090;52.604;13.318;2023-05-19T10:10:59;102121.34;;;17.37;44.01
57234;BME280;43090;52.604;13.318;2023-05-19T10:13:28;102113.38;;;17.58;42.16
57234;BME280;43090;52.604;13.318;2023-05-19T10:15:56;102113.41;;;18.14;42.57
57234;BME280;43090;52.604;13.318;2023-05-19T10:18:25;102100.22;;;18.21;43.21
57234;BME280;43090;52.604;13.318;2023-05-19T10:20:53;102104.78;;;18.21;43.93
57234;BME280;43090;52.604;13.318;2023-05-19T10:23:19;102109.75;;;18.48;40.48
57234;BME280;43090;52.604;13.318;2023-05-19T10:25:48;102102.16;;;18.30;45.12
57234;BME280;43090;52.604;13.318;2023-05-19T10:28:17;102112.31;;;18.61;40.66
57234;BME280;43090;52.604;13.318;2023-05-19T10:30:48;102110.28;;;18.30;40.96
57234;BME280;43090;52.604;13.318;2023-05-19T10:33:17;102106.66;;;18.09;39.99
57234;BME280;43090;52.604;13.318;2023-05-19T10:41:27;102106.25;;;17.91;44.44
57234;BME280;43090;52.604;13.318;2023-05-19T10:44:32;102101.47;;;18.06;39.58
57234;BME280;43090;52.604;13.318;2023-05-19T10:47:00;102097.28;;;18.13;40.72
57234;BME280;43090;52.604;13.318;2023-05-19T10:49:27;102103.91;;;18.20;41.54
57234;BME280;43090;52.604;13.318;2023-05-19T10:51:56;102098.13;;;18.13;42.71
57234;BME280;43090;52.604;13.318;2023-05-19T10:54:42;102099.28;;;18.00;41.20
57234;BME280;43090;52.604;13.318;2023-05-19T10:57:16;102091.72;;;18.03;42.00
57234;BME280;43090;52.604;13.318;2023-05-19T10:59:43;102091.31;;;18.30;40.62
57234;BME280;43090;52.604;13.318;2023-05-19T11:02:40;102093.59;;;18.03;40.74
57234;BME280;43090;52.604;13.318;2023-05-19T11:05:11;102082.00;;;17.78;43.35
57234;BME280;43090;52.604;13.318;2023-05-19T11:07:40;102085.34;;;17.70;42.97
57234;BME280;43090;52.604;13.318;2023-05-19T11:10:08;102084.97;;;17.86;43.44
57234;BME280;43090;52.604;13.318;2023-05-19T11:12:39;102081.63;;;18.05;42.02
57234;BME280;43090;52.604;13.318;2023-05-19T11:15:14;102078.66;;;18.20;43.76
57234;BME280;43090;52.604;13.318;2023-05-19T11:17:44;102090.81;;;18.37;41.87
57234;BME280;43090;52.604;13.318;2023-05-19T11:20:24;102087.34;;;18.46;42.45
57234;BME280;43090;52.604;13.318;2023-05-19T11:23:07;102079.81;;;18.50;39.26
57234;BME280;43090;52.604;13.318;2023-05-19T11:25:48;102080.88;;;18.26;39.31
57234;BME280;43090;52.604;13.318;2023-05-19T11:28:16;102081.50;;;18.07;42.48
57234;BME280;43090;52.604;13.318;2023-05-19T11:30:46;102082.50;;;17.72;44.74
57234;BME280;43090;52.604;13.318;2023-05-19T11:33:16;102072.88;;;17.79;44.15
57234;BME280;43090;52.604;13.318;2023-05-19T11:35:46;102071.66;;;17.83;44.30
57234;BME280;43090;52.604;13.318;2023-05-19T11:38:16;102063.78;;;17.80;45.45
57234;BME280;43090;52.604;13.318;2023-05-19T11:40:43;102060.09;;;18.04;42.52
57234;BME280;43090;52.604;13.318;2023-05-19T11:43:10;102069.44;;;18.11;44.42
57234;BME280;43090;52.604;13.318;2023-05-19T11:45:37;102072.34;;;18.30;42.45
57234;BME280;43090;52.604;13.318;2023-05-19T11:48:04;102070.13;;;18.24;44.74
57234;BME280;43090;52.604;13.318;2023-05-19T11:50:31;102068.78;;;18.30;41.21
57234;BME280;43090;52.604;13.318;2023-05-19T11:52:59;102067.03;;;18.40;40.15
57234;BME280;43090;52.604;13.318;2023-05-19T11:55:26;102066.91;;;18.30;43.10
57234;BME280;43090;52.604;13.318;2023-05-19T11:57:57;102066.66;;;18.34;40.92
57234;BME280;43090;52.604;13.318;2023-05-19T12:00:28;102070.44;;;18.10;39.48
57234;BME280;43090;52.604;13.318;2023-05-19T12:02:56;102077.91;;;18.29;40.31
57234;BME280;43090;52.604;13.318;2023-05-19T12:05:24;102070.03;;;18.14;41.94
57234;BME280;43090;52.604;13.318;2023-05-19T12:07:51;102060.19;;;18.13;42.15
57234;BME280;43090;52.604;13.318;2023-05-19T12:10:29;102062.81;;;18.04;42.96
57234;BME280;43090;52.604;13.318;2023-05-19T12:12:56;102062.19;;;17.89;42.39
57234;BME280;43090;52.604;13.318;2023-05-19T12:15:24;102074.97;;;17.75;41.87
57234;BME280;43090;52.604;13.318;2023-05-19T12:17:59;102074.63;;;18.03;41.81
57234;BME280;43090;52.604;13.318;2023-05-19T12:20:27;102064.00;;;17.88;43.39
57234;BME280;43090;52.604;13.318;2023-05-19T12:22:54;102066.13;;;17.96;40.46
57234;BME280;43090;52.604;13.318;2023-05-19T12:25:22;102059.56;;;17.87;41.37
57234;BME280;43090;52.604;13.318;2023-05-19T12:27:57;102071.16;;;17.89;42.71
57234;BME280;43090;52.604;13.318;2023-05-19T12:30:28;102052.94;;;17.91;42.07
57234;BME280;43090;52.604;13.318;2023-05-19T12:32:56;102061.91;;;18.14;40.91
57234;BME280;43090;52.604;13.318;2023-05-19T12:35:28;102046.81;;;18.01;40.09
57234;BME280;43090;52.604;13.318;2023-05-19T12:37:55;102044.06;;;17.78;43.21
57234;BME280;43090;52.604;13.318;2023-05-19T12:40:22;102042.59;;;17.85;41.41
57234;BME280;43090;52.604;13.318;2023-05-19T12:42:49;102038.97;;;18.30;39.48
57234;BME280;43090;52.604;13.318;2023-05-19T12:45:21;102037.44;;;17.93;43.57
57234;BME280;43090;52.604;13.318;2023-05-19T12:47:48;102046.91;;;17.88;42.49
57234;BME280;43090;52.604;13.318;2023-05-19T12:50:15;102042.59;;;17.96;40.20
57234;BME280;43090;52.604;13.318;2023-05-19T12:52:46;102053.63;;;18.27;39.58
57234;BME280;43090;52.604;13.318;2023-05-19T12:55:14;102029.44;;;18.36;40.92
57234;BME280;43090;52.604;13.318;2023-05-19T12:57:43;102028.16;;;18.51;41.78
57234;BME280;43090;52.604;13.318;2023-05-19T13:00:18;102038.91;;;18.41;44.45
57234;BME280;43090;52.604;13.318;2023-05-19T13:02:58;102043.28;;;18.33;42.65
57234;BME280;43090;52.604;13.318;2023-05-19T13:05:26;102034.38;;;18.30;44.43
57234;BME280;43090;52.604;13.318;2023-05-19T13:07:58;102046.53;;;18.47;40.16
57234;BME280;43090;52.604;13.318;2023-05-19T13:10:25;102040.78;;;18.29;40.19
57234;BME280;43090;52.604;13.318;2023-05-19T13:12:57;102030.88;;;18.51;40.28
57234;BME280;43090;52.604;13.318;2023-05-19T13:15:25;102025.34;;;18.74;41.76
57234;BME280;43090;52.604;13.318;2023-05-19T13:17:52;102038.06;;;18.94;42.55
57234;BME280;43090;52.604;13.318;2023-05-19T13:20:20;102028.91;;;18.74;39.29
57234;BME280;43090;52.604;13.318;2023-05-19T13:22:47;102023.69;;;18.61;41.08
57234;BME280;43090;52.604;13.318;2023-05-19T13:25:15;102027.34;;;18.39;39.66
57234;BME280;43090;52.604;13.318;2023-05-19T13:27:44;102034.38;;;18.30;41.02